Timbo Grande, Brazil
Current Conditions -  °F | °C
As of 11:00 PM on Sunday 23 Nov 2014 (Local Time) from SBJV Reporting Station
Drizzle Drizzle  
Wind Chill: 70°   Ceiling: 700
Heat Index: 70°   Visibility: 3mi
Dew Point: 68°   Wind: 6mph
Humidity: 94%   Direction: 100°E
Pressure: 30.03"   Gusts: NA
Location:  26.62°S, 50.67°W
Report Text: SBJV 240100Z 10005KT 5000 -DZ BR BKN007 OVC020 21/20 Q1017
Loading
Personal Weather Stations






























Interactive Weather Map New forecast layout! Learn more

10-Day Weather Forecast

Advertisements
Track Severe Weather on mobile